Time;durP1;ratioP1;P1;durP2;ratioP2;P2;SDS_P1;SDS_P2;PMS_P1;PMS_P2;Temp;Humidity;BMP_temperature;BMP_pressure;BME280_temperature;BME280_humidity;BME280_pressure;Samples;Min_cycle;Max_cycle;Signal;HPM_P1;HPM_P2
2022/02/05 05:25:37;;;;;;;;;4.25;3.75;;;;;16.21;54.21;102163.19;5056753;27;45591;-76
2022/02/05 05:28:02;;;;;;;;;4.00;4.00;;;;;16.39;54.36;102157.78;5046466;28;45598;-73
2022/02/05 05:30:28;;;;;;;;;3.25;3.25;;;;;16.59;53.93;102161.97;5044401;28;45497;-73
2022/02/05 05:32:53;;;;;;;;;6.25;4.25;;;;;16.82;53.97;102165.16;5039064;28;45520;-74
2022/02/05 05:35:18;;;;;;;;;5.00;4.25;;;;;17.06;53.68;102162.03;5040514;28;54559;-75
2022/02/05 05:37:51;;;;;;;;;6.00;4.00;;;;;17.28;53.58;102158.94;5033491;28;45783;-73
2022/02/05 05:40:17;;;;;;;;;5.00;5.00;;;;;17.53;53.80;102165.47;5032105;28;47521;-74
2022/02/05 05:42:47;;;;;;;;;3.00;3.00;;;;;17.76;53.35;102173.97;5043197;28;45716;-73
2022/02/05 05:47:56;;;;;;;;;5.00;4.00;;;;;18.21;52.80;102183.75;5035466;28;45500;-72
2022/02/05 05:53:15;;;;;;;;;4.00;4.00;;;;;18.66;52.22;102175.50;5035247;28;45693;-75
2022/02/05 05:55:46;;;;;;;;;7.00;4.00;;;;;18.83;51.81;102175.25;5038039;28;47433;-75
2022/02/05 05:58:13;;;;;;;;;4.00;4.00;;;;;18.98;52.11;102175.19;5043101;28;45744;-74
2022/02/05 06:00:41;;;;;;;;;4.33;4.33;;;;;19.15;52.02;102168.69;5046783;28;45658;-73
2022/02/05 06:03:07;;;;;;;;;4.75;3.25;;;;;19.29;51.74;102169.59;5041765;28;45440;-74
2022/02/05 06:05:32;;;;;;;;;4.00;4.00;;;;;19.43;51.12;102177.56;5039404;28;46301;-72
2022/02/05 06:07:58;;;;;;;;;4.00;4.00;;;;;19.58;51.28;102185.56;5036901;28;45411;-73
2022/02/05 06:10:24;;;;;;;;;3.00;3.00;;;;;19.71;50.83;102188.25;5040582;28;45391;-72
2022/02/05 06:12:49;;;;;;;;;3.00;3.00;;;;;19.84;50.65;102186.41;5044861;28;45369;-72
2022/02/05 06:15:15;;;;;;;;;4.00;4.00;;;;;19.95;50.69;102184.78;5043727;28;45962;-72
2022/02/05 06:17:40;;;;;;;;;2.50;2.50;;;;;20.07;50.55;102189.31;5039255;28;45928;-73
2022/02/05 06:20:07;;;;;;;;;3.67;3.67;;;;;20.18;50.57;102185.84;5042336;28;45570;-74
2022/02/05 06:22:33;;;;;;;;;4.00;4.00;;;;;20.26;50.51;102196.94;5041328;28;45480;-73
2022/02/05 06:24:58;;;;;;;;;2.67;2.67;;;;;20.35;50.09;102189.16;5059284;28;45625;-75
2022/02/05 06:27:23;;;;;;;;;8.00;4.00;;;;;20.44;49.75;102198.41;5064857;28;45399;-73
2022/02/05 06:29:49;;;;;;;;;3.00;1.67;;;;;20.49;49.88;102193.53;5065572;28;45738;-71
2022/02/05 06:32:17;;;;;;;;;3.00;3.00;;;;;20.58;49.86;102198.25;5058309;28;47059;-72
2022/02/05 06:34:42;;;;;;;;;4.33;3.67;;;;;20.64;49.37;102202.34;5060400;28;47199;-75
2022/02/05 06:37:08;;;;;;;;;1.67;1.67;;;;;20.72;49.80;102212.56;5043209;28;45410;-72
2022/02/05 06:39:33;;;;;;;;;4.33;2.00;;;;;20.77;48.73;102213.09;5052731;28;46487;-71
2022/02/05 06:41:58;;;;;;;;;3.33;2.00;;;;;20.78;48.23;102209.41;5051928;28;51553;-71
2022/02/05 06:44:23;;;;;;;;;3.33;2.33;;;;;20.79;48.66;102213.81;5052257;28;46111;-71
2022/02/05 06:46:49;;;;;;;;;2.33;2.33;;;;;20.80;48.41;102218.22;5052263;28;53774;-72
2022/02/05 06:49:14;;;;;;;;;2.00;2.00;;;;;20.80;48.06;102229.03;5046654;28;45403;-71
2022/02/05 06:51:39;;;;;;;;;4.00;2.67;;;;;20.80;47.68;102220.94;5053263;28;45457;-72
2022/02/05 06:54:05;;;;;;;;;3.67;3.33;;;;;20.80;47.71;102226.31;5042205;28;46102;-71
2022/02/05 06:56:30;;;;;;;;;4.67;3.33;;;;;20.81;47.73;102222.69;5049545;28;45518;-71
2022/02/05 06:58:55;;;;;;;;;4.00;4.00;;;;;20.86;47.85;102230.41;5048290;28;45380;-71
2022/02/05 07:01:21;;;;;;;;;3.00;3.00;;;;;20.88;47.85;102240.16;5038524;28;45527;-72
2022/02/05 07:03:46;;;;;;;;;4.67;4.00;;;;;20.91;47.42;102237.22;5045051;28;49055;-74
2022/02/05 07:06:12;;;;;;;;;2.00;2.00;;;;;20.96;47.63;102236.88;5050553;28;45427;-74
2022/02/05 07:08:40;;;;;;;;;3.00;3.00;;;;;21.03;47.20;102238.16;5045474;28;45999;-73
2022/02/05 07:11:05;;;;;;;;;4.00;2.33;;;;;21.15;47.40;102238.19;5041508;28;48223;-74
2022/02/05 07:13:31;;;;;;;;;2.00;2.00;;;;;21.25;47.61;102244.59;5037868;28;45618;-73
2022/02/05 07:16:03;;;;;;;;;3.67;2.33;;;;;21.35;47.75;102255.59;5052201;28;45458;-74
2022/02/05 07:21:04;;;;;;;;;2.67;2.67;;;;;21.55;47.03;102258.59;5050065;28;45419;-73
2022/02/05 07:23:43;;;;;;;;;3.00;3.00;;;;;21.65;46.90;102251.50;5042411;28;46232;-74
2022/02/05 07:31:37;;;;;;;;;5.33;4.00;;;;;21.95;46.62;102260.06;5039901;28;45660;-74
2022/02/05 07:34:03;;;;;;;;;3.00;2.33;;;;;22.02;46.60;102257.72;5052746;28;45922;-73
2022/02/05 07:36:28;;;;;;;;;5.33;2.33;;;;;22.09;46.54;102273.34;5050515;28;45372;-74
2022/02/05 07:38:54;;;;;;;;;2.00;2.00;;;;;22.14;46.75;102270.25;5040878;28;45453;-74
2022/02/05 07:41:19;;;;;;;;;2.00;2.00;;;;;22.20;46.60;102275.16;5048868;28;45463;-71
2022/02/05 07:43:45;;;;;;;;;2.33;1.67;;;;;22.25;46.44;102272.13;5045279;28;46075;-71
2022/02/05 07:46:13;;;;;;;;;2.33;2.00;;;;;22.28;46.22;102277.28;5043321;28;45640;-71
2022/02/05 07:48:39;;;;;;;;;2.00;2.00;;;;;22.28;46.69;102277.28;5034631;28;45349;-72
2022/02/05 07:51:04;;;;;;;;;3.00;3.00;;;;;22.30;46.26;102282.56;5041906;28;45369;-72
2022/02/05 07:53:31;;;;;;;;;3.33;3.00;;;;;22.33;46.82;102285.03;5039860;28;46265;-72
2022/02/05 07:55:59;;;;;;;;;2.00;2.00;;;;;22.35;46.60;102285.75;5050557;28;45444;-74
2022/02/05 07:58:26;;;;;;;;;3.00;3.00;;;;;22.37;46.47;102295.47;5047286;28;45648;-72
2022/02/05 08:00:52;;;;;;;;;2.00;2.00;;;;;22.37;46.32;102295.47;5043261;28;45776;-71
2022/02/05 08:03:18;;;;;;;;;4.33;3.00;;;;;22.42;46.85;102296.94;5053412;28;45517;-73
2022/02/05 08:05:43;;;;;;;;;2.33;2.33;;;;;22.41;46.84;102287.97;5039537;28;45468;-72
2022/02/05 08:08:13;;;;;;;;;4.00;3.00;;;;;22.44;46.24;102287.72;5045561;28;45768;-73
2022/02/05 08:10:47;;;;;;;;;2.33;1.00;;;;;22.45;46.66;102296.69;5047794;28;45504;-69
2022/02/05 08:13:13;;;;;;;;;3.00;3.00;;;;;22.42;45.75;102294.22;5047481;28;46379;-70
2022/02/05 08:15:39;;;;;;;;;2.00;1.67;;;;;22.34;45.52;102297.56;5047822;28;45712;-70
2022/02/05 08:18:04;;;;;;;;;3.67;3.00;;;;;22.30;45.34;102298.78;5049295;28;45392;-68
2022/02/05 08:20:29;;;;;;;;;3.00;3.00;;;;;22.22;45.12;102299.41;5045855;28;45476;-70
2022/02/05 08:22:55;;;;;;;;;1.67;1.67;;;;;22.18;45.29;102292.50;5050215;28;45472;-70
2022/02/05 08:25:21;;;;;;;;;2.00;2.00;;;;;22.13;45.29;102295.59;5050485;28;45931;-68
2022/02/05 08:27:46;;;;;;;;;2.67;2.67;;;;;22.08;45.80;102287.81;5049586;28;45731;-68
2022/02/05 08:30:13;;;;;;;;;2.67;2.67;;;;;22.08;45.88;102289.69;5043852;28;45467;-71
2022/02/05 08:32:40;;;;;;;;;2.00;2.00;;;;;22.04;45.71;102291.78;5044746;28;45749;-69
2022/02/05 08:35:07;;;;;;;;;2.33;2.33;;;;;22.02;45.32;102292.88;5045285;28;45464;-69
2022/02/05 08:37:39;;;;;;;;;2.00;2.00;;;;;22.03;45.25;102286.47;5044693;28;45503;-69
2022/02/05 08:40:06;;;;;;;;;1.67;1.67;;;;;22.03;45.65;102290.03;5045473;28;45698;-68
2022/02/05 08:42:31;;;;;;;;;2.00;2.00;;;;;22.02;45.24;102277.50;5047580;28;45804;-71
2022/02/05 08:44:56;;;;;;;;;2.67;2.67;;;;;22.03;45.64;102281.06;5049791;28;46297;-70
2022/02/05 08:47:22;;;;;;;;;2.00;2.00;;;;;22.03;45.30;102286.47;5052485;28;45646;-70
2022/02/05 08:49:47;;;;;;;;;2.00;2.00;;;;;22.01;45.37;102283.91;5048265;28;45437;-69
2022/02/05 08:52:13;;;;;;;;;3.67;2.67;;;;;21.97;45.67;102280.59;5050314;28;46421;-69
2022/02/05 08:54:39;;;;;;;;;4.00;4.00;;;;;21.96;46.20;102283.41;5046171;28;45556;-71
2022/02/05 08:57:07;;;;;;;;;3.00;3.00;;;;;21.95;45.90;102276.28;5042774;28;45482;-69
2022/02/05 08:59:45;;;;;;;;;4.00;3.00;;;;;21.93;45.38;102287.22;5040378;28;45541;-70
2022/02/05 09:02:19;;;;;;;;;2.00;2.00;;;;;21.93;45.45;102291.75;5041941;28;46491;-70
2022/02/05 09:07:28;;;;;;;;;3.67;3.67;;;;;21.92;46.13;102276.50;5042654;28;45503;-70
2022/02/05 09:15:05;;;;;;;;;2.00;2.00;;;;;21.91;45.48;102282.91;5041609;28;45420;-70
2022/02/05 09:17:30;;;;;;;;;3.67;3.67;;;;;21.94;45.84;102288.06;5041283;28;45488;-67
2022/02/05 09:19:55;;;;;;;;;3.00;3.00;;;;;21.96;45.46;102292.34;5042815;28;45708;-69
2022/02/05 09:22:21;;;;;;;;;3.67;3.67;;;;;21.97;45.69;102295.94;5040710;28;46118;-67
2022/02/05 09:24:46;;;;;;;;;3.67;3.67;;;;;21.96;45.22;102303.16;5043433;28;45491;-69
2022/02/05 09:27:13;;;;;;;;;3.00;2.67;;;;;21.96;45.23;102302.31;5043188;28;45451;-69
2022/02/05 09:29:59;;;;;;;;;5.33;4.67;;;;;21.95;45.74;102311.44;5040553;28;45717;-69
2022/02/05 09:32:25;;;;;;;;;5.33;3.00;;;;;21.96;45.88;102313.13;5041754;28;47086;-69
2022/02/05 09:34:50;;;;;;;;;4.33;3.00;;;;;21.97;45.82;102315.72;5043897;28;45476;-70
2022/02/05 09:37:16;;;;;;;;;5.67;3.33;;;;;22.00;46.14;102305.63;5039815;28;45682;-70
2022/02/05 09:39:43;;;;;;;;;3.33;3.00;;;;;22.01;45.57;102310.06;5041991;28;45714;-68
2022/02/05 09:42:10;;;;;;;;;4.67;4.67;;;;;21.97;45.50;102296.81;5038599;28;46653;-68
2022/02/05 09:44:36;;;;;;;;;5.00;4.00;;;;;22.01;45.08;102301.94;5040846;28;45670;-68
2022/02/05 09:47:01;;;;;;;;;3.67;3.67;;;;;22.02;45.47;102306.41;5041243;28;45886;-71
2022/02/05 09:49:27;;;;;;;;;4.67;3.67;;;;;22.03;44.74;102300.00;5039565;28;45665;-70
2022/02/05 09:52:12;;;;;;;;;4.67;3.00;;;;;22.04;44.74;102304.41;5023458;28;47036;-71
2022/02/05 09:54:39;;;;;;;;;5.33;5.33;;;;;22.05;45.15;102292.63;5035715;28;45465;-70
2022/02/05 09:57:05;;;;;;;;;4.00;2.33;;;;;22.09;44.62;102302.22;5038877;28;45461;-70
2022/02/05 09:59:52;;;;;;;;;3.00;2.33;;;;;22.07;44.76;102299.63;5038914;28;45489;-72
2022/02/05 10:02:26;;;;;;;;;4.33;4.00;;;;;22.07;44.94;102299.63;5042750;28;46289;-69
2022/02/05 10:05:03;;;;;;;;;3.33;3.33;;;;;22.08;44.54;102301.34;5039833;28;45548;-72
2022/02/05 10:07:29;;;;;;;;;3.67;2.00;;;;;22.06;43.74;102308.72;5037251;28;45468;-70
2022/02/05 10:09:59;;;;;;;;;11.00;5.67;;;;;22.05;44.00;102307.00;5048215;28;45500;-72
2022/02/05 10:12:26;;;;;;;;;6.33;6.33;;;;;22.05;43.75;102303.44;5039962;28;46437;-71
2022/02/05 10:14:55;;;;;;;;;7.33;5.33;;;;;22.05;44.18;102303.44;5039466;28;45498;-71
2022/02/05 10:17:35;;;;;;;;;6.33;5.67;;;;;22.05;44.29;102311.53;5047561;28;45568;-71
2022/02/05 10:20:01;;;;;;;;;7.33;7.33;;;;;22.07;44.03;102301.50;5040424;28;45566;-70
2022/02/05 10:22:38;;;;;;;;;7.67;5.33;;;;;22.08;43.87;102308.59;5042204;28;45839;-70
2022/02/05 10:25:15;;;;;;;;;4.33;4.00;;;;;22.11;44.18;102313.75;5044644;28;45441;-70
2022/02/05 10:27:42;;;;;;;;;10.00;5.67;;;;;22.13;43.92;102319.03;5040552;28;46035;-71
2022/02/05 10:30:27;;;;;;;;;7.67;6.00;;;;;22.16;44.43;102316.13;5039578;28;45849;-72
2022/02/05 10:33:12;;;;;;;;;7.67;7.00;;;;;22.19;44.41;102319.44;5041345;28;46472;-71
2022/02/05 10:36:03;;;;;;;;;11.00;5.67;;;;;22.22;44.23;102319.19;5045025;28;45396;-70
2022/02/05 10:38:52;;;;;;;;;8.00;6.33;;;;;22.25;44.12;102318.94;5049495;28;45836;-70
2022/02/05 10:44:16;;;;;;;;;9.00;6.33;;;;;22.32;44.03;102334.69;5049266;28;45437;-70
2022/02/05 10:46:43;;;;;;;;;6.00;5.00;;;;;22.34;44.24;102324.59;5046802;28;45516;-71
2022/02/05 10:49:40;;;;;;;;;7.33;6.00;;;;;22.40;44.36;102328.69;5047363;28;47410;-71
2022/02/05 10:52:05;;;;;;;;;7.00;5.00;;;;;22.42;44.65;102324.88;5044656;28;45409;-71
2022/02/05 10:54:50;;;;;;;;;6.33;4.67;;;;;22.44;44.60;102332.84;5043072;28;47243;-71
2022/02/05 10:57:31;;;;;;;;;10.00;5.67;;;;;22.46;44.51;102337.16;5044144;28;45425;-69
2022/02/05 11:08:00;;;;;;;;;7.00;4.00;;;;;22.53;44.28;102336.66;5046671;28;45647;-71
2022/02/05 11:21:18;;;;;;;;;13.00;8.00;;;;;22.54;42.24;102346.53;4971985;28;45532;-73
2022/02/05 11:23:46;;;;;;;;;8.00;5.00;;;;;22.44;38.63;102340.97;4969681;28;45540;-75
2022/02/05 11:26:12;;;;;;;;;3.67;3.67;;;;;22.21;37.33;102338.25;4955446;28;46119;-76
2022/02/05 11:28:43;;;;;;;;;7.00;5.00;;;;;21.97;37.03;102334.66;4970893;28;45424;-76
2022/02/05 11:31:18;;;;;;;;;5.33;5.00;;;;;21.79;37.14;102327.97;4972614;28;45536;-76
2022/02/05 11:33:44;;;;;;;;;5.00;5.00;;;;;21.60;36.69;102332.03;4972054;28;45557;-76
2022/02/05 11:38:55;;;;;;;;;6.33;3.33;;;;;21.24;36.64;102331.13;4970414;28;45866;-75
2022/02/05 11:41:35;;;;;;;;;3.00;3.00;;;;;21.08;36.96;102332.28;4969393;28;45990;-76
2022/02/05 11:44:32;;;;;;;;;3.00;3.00;;;;;20.98;37.11;102325.84;4968508;28;45640;-75
2022/02/05 11:47:03;;;;;;;;;6.67;5.00;;;;;20.85;36.79;102318.59;4970779;28;45546;-75
2022/02/05 11:49:53;;;;;;;;;2.00;2.00;;;;;20.71;36.84;102314.22;4988866;28;45486;-75
2022/02/05 11:52:37;;;;;;;;;3.00;3.00;;;;;20.60;36.98;102314.16;5049735;28;45435;-74
2022/02/05 11:55:04;;;;;;;;;3.00;3.00;;;;;20.52;36.40;102309.31;5041852;28;45714;-74
2022/02/05 11:57:45;;;;;;;;;3.00;2.00;;;;;20.44;36.50;102309.00;5041364;28;45661;-74
2022/02/05 12:00:12;;;;;;;;;2.00;2.00;;;;;20.36;36.48;102309.53;5048997;28;45453;-75
2022/02/05 12:02:40;;;;;;;;;1.33;1.33;;;;;20.24;36.45;102298.63;5041083;28;45540;-73
2022/02/05 12:05:16;;;;;;;;;1.00;1.00;;;;;20.16;36.49;102308.25;5039841;28;45710;-75
2022/02/05 12:08:13;;;;;;;;;4.00;4.00;;;;;20.21;40.30;102308.78;5037780;28;45902;-74
2022/02/05 12:10:52;;;;;;;;;9.33;3.00;;;;;20.32;40.69;102300.81;4985786;28;45460;-73
2022/02/05 12:13:20;;;;;;;;;7.00;6.33;;;;;20.45;41.22;102300.78;4986040;28;45781;-73
2022/02/05 12:16:09;;;;;;;;;12.67;8.67;;;;;20.57;40.88;102295.47;4989154;28;48261;-72
2022/02/05 12:19:15;;;;;;;;;13.33;10.33;;;;;20.73;40.68;102298.81;4989137;28;45472;-72
2022/02/05 12:22:12;;;;;;;;;9.67;7.00;;;;;20.86;40.17;102292.47;4990005;28;45552;-72
2022/02/05 12:25:03;;;;;;;;;12.00;9.00;;;;;20.93;40.00;102294.66;4985207;28;45570;-72
2022/02/05 12:27:35;;;;;;;;;13.33;6.33;;;;;21.00;39.16;102294.19;4972691;28;45576;-72
2022/02/05 12:30:38;;;;;;;;;8.33;7.33;;;;;21.08;39.33;102294.47;4989529;28;46952;-72
2022/02/05 12:33:06;;;;;;;;;15.00;10.00;;;;;21.18;39.69;102284.72;4978573;28;45741;-73
2022/02/05 12:35:32;;;;;;;;;17.33;10.33;;;;;21.28;40.15;102284.03;4987858;28;45752;-73
2022/02/05 12:38:03;;;;;;;;;15.00;9.00;;;;;21.37;40.52;102283.31;4989263;28;45458;-73
2022/02/05 12:40:30;;;;;;;;;17.33;10.33;;;;;21.47;40.74;102280.78;4988498;28;45996;-74
2022/02/05 12:42:56;;;;;;;;;9.00;8.67;;;;;21.55;40.48;102272.09;4988231;28;45467;-74
2022/02/05 12:45:37;;;;;;;;;19.00;7.33;;;;;21.66;40.78;102276.69;4994821;28;45543;-74
2022/02/05 12:48:07;;;;;;;;;11.67;7.33;;;;;21.70;40.80;102265.50;5050234;28;45512;-74
2022/02/05 12:50:32;;;;;;;;;10.00;5.67;;;;;21.78;40.86;102258.69;5039705;28;47014;-74
2022/02/05 12:53:00;;;;;;;;;9.33;8.00;;;;;21.87;41.67;102251.69;5043323;28;45490;-74
2022/02/05 12:55:27;;;;;;;;;8.33;6.00;;;;;21.96;41.85;102259.06;5044411;28;45741;-71
2022/02/05 12:58:00;;;;;;;;;10.33;5.00;;;;;22.06;41.79;102270.88;5050465;28;45384;-71
2022/02/05 13:00:26;;;;;;;;;9.33;6.33;;;;;22.09;41.67;102249.00;5049566;28;46961;-71
2022/02/05 13:02:51;;;;;;;;;15.00;8.33;;;;;22.19;41.79;102256.38;5036836;28;45325;-71
2022/02/05 13:05:16;;;;;;;;;8.33;5.00;;;;;22.25;41.84;102261.28;5039597;28;45426;-71
2022/02/05 13:07:43;;;;;;;;;6.67;6.67;;;;;22.29;42.03;102251.97;5042571;28;45718;-72
2022/02/05 13:10:08;;;;;;;;;10.67;5.33;;;;;22.32;41.74;102253.56;5049593;28;46132;-72
2022/02/05 13:12:37;;;;;;;;;8.67;7.00;;;;;22.38;41.96;102258.47;5036006;28;45673;-72
2022/02/05 13:15:17;;;;;;;;;9.33;6.00;;;;;22.41;42.09;102258.22;5036243;28;45426;-72
2022/02/05 13:25:42;;;;;;;;;7.67;4.33;;;;;22.54;41.68;102258.09;5034348;28;45434;-72
2022/02/05 13:28:33;;;;;;;;;9.33;7.00;;;;;22.53;41.91;102253.66;5037276;28;45905;-71
2022/02/05 13:36:12;;;;;;;;;6.33;5.33;;;;;22.60;42.46;102251.34;5037294;28;45401;-71
2022/02/05 13:38:57;;;;;;;;;4.33;4.33;;;;;22.61;42.30;102240.38;5043534;28;45503;-71
2022/02/05 13:41:39;;;;;;;;;8.00;4.33;;;;;22.65;42.68;102249.13;5051263;28;46124;-72
2022/02/05 13:44:04;;;;;;;;;7.67;5.67;;;;;22.66;42.64;102241.84;5023197;28;45579;-71
2022/02/05 13:46:30;;;;;;;;;14.00;9.67;;;;;22.62;42.21;102236.69;5048376;28;45494;-71
2022/02/05 13:49:16;;;;;;;;;13.00;6.00;;;;;22.68;42.09;102245.28;5049009;28;45430;-72
2022/02/05 13:51:42;;;;;;;;;12.67;6.67;;;;;22.68;42.24;102250.72;5046557;28;46894;-71
2022/02/05 13:54:08;;;;;;;;;11.00;5.00;;;;;22.66;42.25;102242.72;5052930;28;45528;-71
2022/02/05 13:56:34;;;;;;;;;7.00;4.67;;;;;22.70;42.38;102241.47;5041529;28;45518;-71
2022/02/05 13:59:01;;;;;;;;;10.33;6.33;;;;;22.73;42.75;102240.38;5039513;28;45540;-71
2022/02/05 14:01:32;;;;;;;;;9.00;6.33;;;;;22.76;42.65;102235.53;5041731;28;45813;-72
2022/02/05 14:04:15;;;;;;;;;7.67;6.33;;;;;22.79;42.72;102238.97;5039050;28;45722;-72
2022/02/05 14:06:57;;;;;;;;;8.67;5.33;;;;;22.82;42.88;102230.59;5037328;28;48252;-72
2022/02/05 14:09:32;;;;;;;;;9.67;5.00;;;;;22.80;42.62;102219.91;5051718;28;45465;-72
2022/02/05 14:12:21;;;;;;;;;7.33;5.67;;;;;22.81;43.01;102223.47;5050211;28;47126;-72
2022/02/05 14:15:04;;;;;;;;;11.00;10.33;;;;;22.79;42.59;102220.03;5054299;28;45656;-74
2022/02/05 14:17:29;;;;;;;;;14.67;8.00;;;;;22.75;42.66;102219.44;5047317;28;45625;-72
2022/02/05 14:20:06;;;;;;;;;14.67;12.33;;;;;22.73;42.93;102224.13;5043544;28;45534;-72
2022/02/05 14:22:35;;;;;;;;;9.00;8.33;;;;;22.70;43.11;102221.66;5040383;28;46317;-74
2022/02/05 14:25:13;;;;;;;;;15.33;8.67;;;;;22.66;43.33;102217.47;5038603;28;45431;-72
2022/02/05 14:27:57;;;;;;;;;10.00;7.33;;;;;22.63;43.11;102216.75;5036860;28;45433;-72
2022/02/05 14:30:26;;;;;;;;;10.67;7.33;;;;;22.61;43.60;102221.44;5051951;28;45404;-72
2022/02/05 14:32:53;;;;;;;;;10.33;6.67;;;;;22.59;43.47;102222.53;5049137;28;46131;-74
2022/02/05 14:35:41;;;;;;;;;10.00;6.00;;;;;22.57;43.30;102217.28;5042653;28;45598;-73
2022/02/05 14:40:50;;;;;;;;;9.00;6.00;;;;;22.51;43.89;102215.91;5050729;28;45381;-74
2022/02/05 14:43:18;;;;;;;;;8.67;3.67;;;;;22.49;43.04;102219.72;5051106;28;45622;-74
2022/02/05 14:45:47;;;;;;;;;8.33;6.33;;;;;22.46;42.93;102231.66;5044682;28;45392;-74
2022/02/05 14:48:13;;;;;;;;;6.67;3.67;;;;;22.43;42.85;102226.47;5036936;28;45463;-74
2022/02/05 14:50:39;;;;;;;;;9.67;7.00;;;;;22.41;43.06;102224.88;5038876;28;45516;-74
2022/02/05 14:53:04;;;;;;;;;11.67;7.00;;;;;22.40;42.73;102231.28;5045787;28;46878;-72
2022/02/05 14:55:30;;;;;;;;;7.33;4.33;;;;;22.36;42.72;102222.56;5052884;28;45527;-72
2022/02/05 14:57:55;;;;;;;;;6.00;4.67;;;;;22.36;43.19;102227.97;5047428;28;45504;-72
2022/02/05 15:00:21;;;;;;;;;5.67;4.33;;;;;22.33;43.64;102228.22;5040104;28;45467;-72
2022/02/05 15:02:49;;;;;;;;;3.67;3.33;;;;;22.29;43.43;102230.31;5053107;28;45666;-72
2022/02/05 15:05:15;;;;;;;;;6.33;4.67;;;;;22.28;43.19;102234.00;5047874;28;45609;-72
2022/02/05 15:07:41;;;;;;;;;12.00;4.00;;;;;22.27;43.40;102226.84;5047070;28;45982;-72
2022/02/05 15:10:09;;;;;;;;;12.33;7.00;;;;;22.27;43.75;102236.84;5051584;28;45382;-71
2022/02/05 15:12:36;;;;;;;;;10.33;6.00;;;;;22.27;43.90;102234.97;5023709;28;47287;-72
2022/02/05 15:15:01;;;;;;;;;10.00;8.00;;;;;22.27;43.64;102226.03;5052345;28;45476;-72
2022/02/05 15:17:26;;;;;;;;;8.33;6.00;;;;;22.26;44.11;102227.84;5046686;28;45452;-71
2022/02/05 15:19:52;;;;;;;;;7.00;6.00;;;;;22.27;44.18;102232.25;5046583;28;45500;-72
2022/02/05 15:22:17;;;;;;;;;9.67;6.33;;;;;22.27;43.85;102236.84;5052818;28;46027;-74
2022/02/05 15:24:43;;;;;;;;;8.00;6.67;;;;;22.27;44.16;102228.72;5051797;28;45941;-72
2022/02/05 15:27:11;;;;;;;;;10.00;7.00;;;;;22.28;43.54;102231.31;5049782;28;45682;-74
2022/02/05 15:29:36;;;;;;;;;15.33;11.33;;;;;22.30;43.43;102231.16;5048203;28;45464;-72
2022/02/05 15:32:02;;;;;;;;;11.33;7.67;;;;;22.29;43.25;102230.31;5042432;28;45511;-72
2022/02/05 15:34:27;;;;;;;;;12.00;8.67;;;;;22.28;42.69;102225.03;5041317;28;45705;-71
2022/02/05 15:36:57;;;;;;;;;20.33;9.33;;;;;22.27;43.48;102223.31;5044475;28;45314;-70
2022/02/05 15:39:48;;;;;;;;;22.33;11.33;;;;;22.27;43.86;102231.44;5045052;28;45547;-70
2022/02/05 15:45:00;;;;;;;;;12.00;8.00;;;;;22.24;43.91;102232.53;5045025;28;45380;-71
2022/02/05 15:47:25;;;;;;;;;9.67;7.67;;;;;22.22;43.42;102229.94;5043539;28;45891;-70
2022/02/05 15:49:50;;;;;;;;;7.67;5.33;;;;;22.21;43.05;102232.78;5049978;28;45848;-70
2022/02/05 15:52:16;;;;;;;;;15.67;9.00;;;;;22.19;43.07;102226.66;5049700;28;50748;-72
2022/02/05 15:54:41;;;;;;;;;11.00;8.67;;;;;22.14;43.77;102227.00;5042334;28;45705;-72
2022/02/05 16:02:09;;;;;;;;;6.67;6.00;;;;;22.14;43.67;102245.09;5047707;28;46200;-72
2022/02/05 16:04:35;;;;;;;;;8.67;6.33;;;;;22.08;43.19;102231.03;5049622;28;45820;-73
2022/02/05 16:07:00;;;;;;;;;10.00;8.33;;;;;22.09;43.27;102232.78;5046224;28;45790;-72
2022/02/05 16:09:26;;;;;;;;;13.67;7.00;;;;;22.08;43.34;102233.75;5047752;28;45526;-72
2022/02/05 16:11:52;;;;;;;;;13.33;8.33;;;;;22.05;43.14;102230.44;5047551;28;58170;-72
2022/02/05 16:14:17;;;;;;;;;12.33;8.00;;;;;22.04;43.40;102235.00;5049323;28;46363;-72
2022/02/05 16:16:43;;;;;;;;;15.00;8.67;;;;;22.03;43.76;102235.97;5049264;28;45803;-72
2022/02/05 16:19:09;;;;;;;;;8.00;6.67;;;;;22.00;43.49;102224.53;5046706;28;45523;-72
2022/02/05 16:21:34;;;;;;;;;11.00;5.00;;;;;22.02;43.78;102236.09;5027258;28;45513;-71
2022/02/05 16:23:59;;;;;;;;;8.00;8.00;;;;;22.04;44.04;102242.25;5045437;28;52823;-73
2022/02/05 16:26:25;;;;;;;;;10.00;5.00;;;;;22.04;44.15;102239.53;5038515;28;45421;-71
2022/02/05 16:28:50;;;;;;;;;9.67;7.67;;;;;22.05;44.34;102247.53;5043913;28;45640;-73
2022/02/05 16:31:16;;;;;;;;;8.00;6.67;;;;;22.07;43.78;102250.13;5038492;28;46197;-72
2022/02/05 16:33:43;;;;;;;;;12.33;6.33;;;;;22.06;44.20;102248.38;5042106;28;45694;-72
2022/02/05 16:36:17;;;;;;;;;12.33;7.00;;;;;22.06;43.54;102246.53;5038243;28;45790;-73
2022/02/05 16:38:45;;;;;;;;;9.67;8.67;;;;;22.07;43.91;102253.66;5036707;28;45589;-72
2022/02/05 16:41:11;;;;;;;;;10.33;5.67;;;;;22.06;43.42;102241.13;5038311;28;46325;-73
2022/02/05 16:43:40;;;;;;;;;10.00;6.00;;;;;22.06;43.58;102246.53;5039749;28;45418;-73
2022/02/05 16:46:08;;;;;;;;;9.67;6.00;;;;;22.06;43.66;102238.44;5034737;28;45678;-72
2022/02/05 16:48:34;;;;;;;;;8.00;5.00;;;;;22.06;43.60;102238.44;5047269;28;45396;-73
2022/02/05 16:51:02;;;;;;;;;6.67;5.67;;;;;22.04;43.79;102228.72;5039778;28;46076;-73
2022/02/05 16:53:27;;;;;;;;;6.67;6.67;;;;;22.02;43.69;102238.81;5038586;28;45513;-72
